Bevent, Wisconsin
Current Conditions -  °F | °C
As of 9:50 AM on Wednesday 26 Nov 2014 (Local Time) from KCWA Reporting Station
Overcast Overcast  
Wind Chill: 18°   Ceiling: 6000
Heat Index: 18°   Visibility: 10mi
Dew Point: 18°   Wind: 3mph
Humidity: 100%   Direction: 140°SE
Pressure: 30.14"   Gusts: NA
Location:  44.8205°N, 89.392°W
Report Text: KCWA 261550Z 14003KT 10SM SCT046 OVC060 M08/M08 A3014
Loading
Personal Weather Stations






























Interactive Weather Map New forecast layout! Learn more

10-Day Weather Forecast

Advertisements
Track Severe Weather on mobile